Time;durP1;ratioP1;P1;durP2;ratioP2;P2;SDS_P1;SDS_P2;PMS_P1;PMS_P2;Temp;Humidity;BMP_temperature;BMP_pressure;BME280_temperature;BME280_humidity;BME280_pressure;Samples;Min_cycle;Max_cycle;Signal;HPM_P1;HPM_P2
2023/05/19 00:02:09;;;;;;;5.27;2.20;;;;;;;7.17;99.55;97369.19;10418315;28;20196;-63
2023/05/19 00:07:10;;;;;;;8.50;2.20;;;;;;;7.06;99.21;97365.63;10418194;28;20269;-63
2023/05/19 00:12:11;;;;;;;5.87;2.60;;;;;;;7.04;99.72;97359.69;10418091;28;20619;-62
2023/05/19 00:17:12;;;;;;;5.87;1.87;;;;;;;6.79;100.00;97366.78;10417724;28;20573;-62
2023/05/19 00:22:12;;;;;;;4.30;2.00;;;;;;;6.81;100.00;97368.47;10417894;28;20384;-63
2023/05/19 00:27:13;;;;;;;5.47;2.23;;;;;;;6.84;100.00;97355.19;10417268;28;20212;-62
2023/05/19 00:32:14;;;;;;;5.00;2.03;;;;;;;6.78;100.00;97346.94;10415978;28;20192;-61
2023/05/19 00:37:14;;;;;;;4.43;2.20;;;;;;;6.42;100.00;97360.94;10417097;28;20212;-63
2023/05/19 00:42:15;;;;;;;6.43;2.10;;;;;;;6.43;100.00;97367.78;10417084;28;20191;-61
2023/05/19 00:47:15;;;;;;;4.30;2.50;;;;;;;6.46;100.00;97359.75;10417519;28;20215;-63
2023/05/19 00:52:15;;;;;;;5.87;2.57;;;;;;;6.42;100.00;97359.16;10416390;28;20280;-62
2023/05/19 00:57:16;;;;;;;3.20;1.97;;;;;;;6.19;100.00;97354.84;10414992;28;20695;-62
2023/05/19 01:02:16;;;;;;;4.80;2.07;;;;;;;6.41;100.00;97348.84;10413415;28;20189;-60
2023/05/19 01:07:17;;;;;;;4.97;1.90;;;;;;;6.36;100.00;97353.59;10415948;28;20201;-61
2023/05/19 01:12:17;;;;;;;4.53;1.80;;;;;;;6.20;100.00;97349.53;10414417;28;20232;-62
2023/05/19 01:17:28;;;;;;;5.67;3.00;;;;;;;6.17;100.00;97341.09;10398010;28;20277;-62
2023/05/19 01:23:03;;;;;;;3.00;2.10;;;;;;;6.05;100.00;97351.47;10415113;28;20193;-62
2023/05/19 01:28:26;;;;;;;8.87;1.80;;;;;;;5.94;100.00;97358.34;10414140;28;20748;-61
2023/05/19 01:33:28;;;;;;;2.87;1.97;;;;;;;5.94;100.00;97358.34;10415808;28;20282;-63
2023/05/19 01:38:29;;;;;;;6.30;2.20;;;;;;;5.61;100.00;97363.28;10415035;28;20188;-62
2023/05/19 01:43:32;;;;;;;3.03;2.20;;;;;;;5.60;100.00;97363.38;10397063;28;20204;-62
2023/05/19 01:48:33;;;;;;;4.40;1.87;;;;;;;5.51;100.00;97357.91;10414232;28;20691;-62
2023/05/19 01:53:33;;;;;;;2.30;1.77;;;;;;;5.52;100.00;97353.53;10412582;28;20236;-62
2023/05/19 01:58:43;;;;;;;3.50;2.30;;;;;;;5.37;100.00;97350.25;10414160;28;20185;-62
2023/05/19 02:03:57;;;;;;;5.30;2.00;;;;;;;5.24;100.00;97347.69;10412477;28;20197;-62
2023/05/19 02:09:11;;;;;;;4.00;2.13;;;;;;;5.14;100.00;97349.25;10412448;28;20199;-62
2023/05/19 02:14:18;;;;;;;6.13;2.40;;;;;;;5.08;100.00;97349.69;10411887;28;20220;-62
2023/05/19 02:19:30;;;;;;;3.63;1.90;;;;;;;5.00;100.00;97351.03;10395329;28;20193;-62
2023/05/19 02:24:31;;;;;;;5.13;2.17;;;;;;;4.88;100.00;97348.47;10411323;28;20221;-62
2023/05/19 02:29:32;;;;;;;5.63;1.90;;;;;;;4.81;100.00;97340.28;10410932;28;20200;-62
2023/05/19 02:34:33;;;;;;;3.07;2.00;;;;;;;4.79;100.00;97336.94;10410620;28;20225;-62
2023/05/19 02:39:34;;;;;;;4.27;1.70;;;;;;;4.73;100.00;97334.78;10410754;28;20894;-62
2023/05/19 02:44:35;;;;;;;5.33;2.00;;;;;;;4.55;100.00;97334.25;10410897;28;20211;-62
2023/05/19 02:49:35;;;;;;;5.00;1.90;;;;;;;4.55;100.00;97329.91;10385509;28;20692;-62
2023/05/19 02:54:36;;;;;;;3.40;2.07;;;;;;;4.40;100.00;97329.16;10369558;28;20821;-61
2023/05/19 02:59:36;;;;;;;5.40;2.13;;;;;;;4.38;100.00;97320.66;10371112;28;20648;-62
2023/05/19 03:04:40;;;;;;;5.53;2.07;;;;;;;4.35;100.00;97323.47;10394096;28;20694;-62
2023/05/19 03:09:40;;;;;;;4.03;2.27;;;;;;;4.27;100.00;97328.31;10410000;28;20188;-62
2023/05/19 03:14:41;;;;;;;3.97;2.10;;;;;;;4.36;100.00;97329.47;10409813;28;20495;-62
2023/05/19 03:19:41;;;;;;;3.13;2.00;;;;;;;4.37;100.00;97316.41;10411021;28;20211;-62
2023/05/19 03:24:41;;;;;;;4.30;2.27;;;;;;;4.36;100.00;97322.50;10411019;28;20209;-62
2023/05/19 03:29:42;;;;;;;3.40;2.00;;;;;;;4.41;100.00;97328.25;10410310;28;20191;-62
2023/05/19 03:34:42;;;;;;;3.03;1.83;;;;;;;4.47;100.00;97324.38;10410365;28;20216;-62
2023/05/19 03:39:42;;;;;;;7.17;2.00;;;;;;;4.60;100.00;97322.63;10410708;28;20212;-61
2023/05/19 03:44:44;;;;;;;3.37;2.30;;;;;;;4.57;100.00;97316.81;10409182;28;20656;-62
2023/05/19 03:49:46;;;;;;;7.10;2.47;;;;;;;4.69;100.00;97328.16;10408999;28;20284;-61
2023/05/19 03:55:07;;;;;;;3.47;1.97;;;;;;;4.72;100.00;97322.75;10389318;28;20242;-61
2023/05/19 04:00:10;;;;;;;7.20;2.20;;;;;;;4.68;100.00;97323.88;10410229;28;20276;-62
2023/05/19 04:05:13;;;;;;;3.53;2.10;;;;;;;4.69;100.00;97328.97;10410295;28;20208;-61
2023/05/19 04:10:13;;;;;;;4.80;2.10;;;;;;;4.77;100.00;97324.06;10410420;28;20682;-62
2023/05/19 04:15:13;;;;;;;7.00;2.20;;;;;;;4.90;100.00;97324.06;10410150;28;20220;-61
2023/05/19 04:20:14;;;;;;;4.53;1.90;;;;;;;4.92;100.00;97318.78;10410112;28;20192;-62
2023/05/19 04:25:14;;;;;;;6.13;2.07;;;;;;;4.97;100.00;97309.72;10409896;28;20212;-62
2023/05/19 04:30:20;;;;;;;3.47;2.20;;;;;;;5.18;100.00;97311.75;10409872;28;20553;-61
2023/05/19 04:35:21;;;;;;;8.70;2.43;;;;;;;5.27;100.00;97308.50;10409807;28;20235;-62
2023/05/19 04:40:22;;;;;;;4.93;2.30;;;;;;;5.50;100.00;97308.66;10412735;28;20199;-63
2023/05/19 04:45:24;;;;;;;7.10;2.27;;;;;;;5.63;100.00;97306.00;10415685;28;20699;-63
2023/05/19 04:50:29;;;;;;;3.93;2.23;;;;;;;5.79;100.00;97318.69;10415667;28;20679;-63
2023/05/19 04:55:31;;;;;;;7.20;2.20;;;;;;;5.98;100.00;97318.22;10414789;28;20241;-63
2023/05/19 05:00:34;;;;;;;2.50;1.87;;;;;;;6.17;100.00;97304.69;10415406;28;20224;-63
2023/05/19 05:05:37;;;;;;;5.27;2.27;;;;;;;6.70;100.00;97305.00;10414883;28;20219;-62
2023/05/19 05:10:38;;;;;;;4.80;2.30;;;;;;;6.97;100.00;97291.63;10414409;28;20671;-62
2023/05/19 05:15:39;;;;;;;4.63;2.23;;;;;;;7.24;100.00;97284.38;10414525;28;20711;-63
2023/05/19 05:20:43;;;;;;;7.50;2.53;;;;;;;7.84;100.00;97283.00;10414280;28;20566;-63
2023/05/19 05:25:45;;;;;;;3.20;2.20;;;;;;;8.28;95.76;97280.28;10414476;28;20207;-63
2023/05/19 05:30:48;;;;;;;6.40;2.90;;;;;;;8.57;93.79;97270.06;10414037;28;20287;-63
2023/05/19 05:35:49;;;;;;;8.23;3.10;;;;;;;8.84;92.75;97273.88;10413474;28;20228;-63
2023/05/19 05:40:49;;;;;;;7.10;3.27;;;;;;;8.98;91.08;97264.03;10413769;28;20184;-63
2023/05/19 05:45:50;;;;;;;6.70;3.67;;;;;;;9.23;92.40;97281.84;10413180;28;20295;-63
2023/05/19 05:50:51;;;;;;;6.30;3.37;;;;;;;9.68;89.47;97272.69;10412737;28;20184;-63
2023/05/19 05:55:56;;;;;;;5.80;3.30;;;;;;;9.89;84.86;97250.78;10437230;22;20247;-66
2023/05/19 06:01:01;;;;;;;6.25;3.35;;;;;;;10.00;85.89;97261.94;10411893;28;20201;-66
2023/05/19 06:06:02;;;;;;;5.38;2.92;;;;;;;10.50;85.92;97265.31;10396431;28;20196;-66
2023/05/19 06:11:07;;;;;;;6.95;3.40;;;;;;;10.40;85.63;97267.13;10412338;28;20283;-66
2023/05/19 06:16:07;;;;;;;5.30;3.20;;;;;;;10.55;86.07;97270.97;10412154;28;20629;-66
2023/05/19 06:21:17;;;;;;;5.75;2.85;;;;;;;11.52;78.93;97209.31;10412077;28;20202;-66
2023/05/19 06:26:18;;;;;;;5.15;3.08;;;;;;;11.74;78.20;97207.19;10411862;28;20208;-66
2023/05/19 06:31:19;;;;;;;3.80;3.05;;;;;;;12.03;76.76;97193.81;10413462;28;20188;-66
2023/05/19 06:36:24;;;;;;;4.13;2.90;;;;;;;12.06;75.92;97184.81;10411636;28;20294;-67
2023/05/19 06:41:28;;;;;;;7.30;3.75;;;;;;;12.10;77.95;97226.38;10411242;28;20671;-67
2023/05/19 06:46:28;;;;;;;5.53;2.85;;;;;;;13.03;74.85;97211.72;10410742;28;20210;-67
2023/05/19 06:51:30;;;;;;;7.53;3.33;;;;;;;11.93;77.14;97220.19;10410864;28;20189;-67
2023/05/19 06:56:30;;;;;;;4.38;3.08;;;;;;;12.17;74.66;97196.88;10410477;28;20236;-67
2023/05/19 07:01:31;;;;;;;3.83;3.00;;;;;;;11.90;75.98;97211.78;10411336;28;20679;-67
2023/05/19 07:06:32;;;;;;;8.02;3.50;;;;;;;12.11;76.83;97235.91;10410313;28;20223;-67
2023/05/19 07:11:33;;;;;;;6.40;3.55;;;;;;;12.67;75.34;97225.06;10412271;28;20190;-67
2023/05/19 07:16:33;;;;;;;6.18;3.72;;;;;;;13.05;72.62;97195.78;10410007;28;20224;-67
2023/05/19 07:21:34;;;;;;;6.28;3.17;;;;;;;13.11;72.32;97197.78;10411314;28;20208;-68
2023/05/19 07:26:35;;;;;;;5.22;3.60;;;;;;;12.55;75.20;97236.84;10410101;28;20291;-66
2023/05/19 07:31:35;;;;;;;5.38;3.50;;;;;;;12.27;73.39;97192.34;10411025;28;20220;-66
2023/05/19 07:36:35;;;;;;;5.50;3.47;;;;;;;12.94;73.42;97216.16;10411204;28;20274;-67
2023/05/19 07:41:36;;;;;;;6.78;3.45;;;;;;;13.86;70.12;97170.59;10415048;28;20193;-67
2023/05/19 07:46:36;;;;;;;9.50;3.17;;;;;;;14.36;67.71;97158.16;10424124;28;20224;-67
2023/05/19 07:51:36;;;;;;;7.75;3.05;;;;;;;14.95;66.53;97153.31;10412638;28;20196;-67
2023/05/19 07:56:37;;;;;;;6.28;3.30;;;;;;;14.75;64.49;97126.56;10410419;28;20232;-66
2023/05/19 08:01:37;;;;;;;3.15;2.72;;;;;;;14.71;63.48;97111.25;10410660;28;20192;-67
2023/05/19 08:06:38;;;;;;;10.32;3.00;;;;;;;15.39;63.68;97132.59;10410330;28;20294;-67
2023/05/19 08:11:38;;;;;;;4.30;2.70;;;;;;;16.36;60.77;97103.63;10410841;28;20667;-68
2023/05/19 08:16:41;;;;;;;9.57;2.97;;;;;;;15.40;64.19;97163.28;10418011;28;20241;-67
2023/05/19 08:21:41;;;;;;;6.20;3.38;;;;;;;15.57;62.10;97132.28;10417832;28;20189;-67
2023/05/19 08:26:42;;;;;;;6.78;3.22;;;;;;;16.49;57.56;97060.66;10417518;28;20278;-67
2023/05/19 08:31:43;;;;;;;4.80;3.20;;;;;;;16.33;59.74;97108.47;10417390;28;20283;-67
2023/05/19 08:36:44;;;;;;;3.53;2.83;;;;;;;15.30;56.91;97024.44;10417369;28;20236;-67
2023/05/19 08:41:44;;;;;;;3.60;2.50;;;;;;;15.60;57.85;97048.22;10417038;28;20193;-66
2023/05/19 08:46:46;;;;;;;6.43;2.90;;;;;;;16.10;56.39;97024.78;10416600;28;20674;-66
2023/05/19 08:52:00;;;;;;;4.18;2.58;;;;;;;16.87;57.17;97070.25;10416480;28;20216;-67
2023/05/19 08:57:01;;;;;;;5.97;2.80;;;;;;;17.46;54.20;97032.91;10414830;28;20243;-67
2023/05/19 09:02:02;;;;;;;3.88;2.53;;;;;;;17.69;52.64;96994.78;10416253;28;20686;-68
2023/05/19 09:07:03;;;;;;;3.20;2.70;;;;;;;18.38;49.50;96953.28;10416165;28;20691;-67
2023/05/19 09:12:03;;;;;;;5.20;2.75;;;;;;;17.07;50.79;96949.50;10415874;28;20192;-67
2023/05/19 09:17:04;;;;;;;6.07;3.42;;;;;;;17.54;54.06;97037.25;10416009;28;20255;-67
2023/05/19 09:22:05;;;;;;;6.00;3.17;;;;;;;17.41;56.40;97069.78;10415562;28;20185;-67
2023/05/19 09:27:05;;;;;;;5.82;3.50;;;;;;;17.57;53.79;97014.88;10414959;28;20244;-67
2023/05/19 09:32:06;;;;;;;3.65;3.00;;;;;;;16.98;55.18;97043.28;10415223;28;20208;-66
2023/05/19 09:37:06;;;;;;;7.30;2.70;;;;;;;18.42;51.82;96983.69;10415097;28;20244;-65
2023/05/19 09:42:07;;;;;;;3.63;2.40;;;;;;;18.48;50.47;96967.00;10414968;28;20616;-68
2023/05/19 09:47:08;;;;;;;6.07;2.33;;;;;;;19.59;49.30;96978.09;10413334;28;20219;-66
2023/05/19 09:52:08;;;;;;;4.32;2.28;;;;;;;19.29;45.37;96879.44;10414588;28;20203;-67
2023/05/19 09:57:09;;;;;;;2.42;2.20;;;;;;;18.57;48.72;96942.94;10413849;28;20256;-67
2023/05/19 10:02:14;;;;;;;2.13;1.88;;;;;;;18.50;50.68;96980.06;10414465;28;20251;-67
2023/05/19 10:07:16;;;;;;;4.15;2.10;;;;;;;19.89;45.84;96906.69;10412598;28;20243;-67
2023/05/19 10:12:16;;;;;;;2.30;1.73;;;;;;;19.52;46.65;96913.50;10413828;28;20188;-67
2023/05/19 10:17:17;;;;;;;3.20;1.98;;;;;;;19.79;46.38;96914.28;10413506;28;20247;-66
2023/05/19 10:22:17;;;;;;;3.15;2.28;;;;;;;20.31;45.21;96896.44;10413337;28;20688;-67
2023/05/19 10:27:18;;;;;;;5.40;2.38;;;;;;;20.28;45.87;96914.66;10412273;28;20210;-67
2023/05/19 10:32:22;;;;;;;8.52;2.45;;;;;;;20.15;43.32;96846.38;10412664;28;20279;-67
2023/05/19 10:37:45;;;;;;;3.63;2.22;;;;;;;21.27;43.55;96887.50;10412724;28;20240;-67
2023/05/19 10:43:06;;;;;;;4.57;2.10;;;;;;;22.09;40.48;96831.19;10411153;28;20238;-66
2023/05/19 10:48:12;;;;;;;2.55;1.90;;;;;;;21.77;42.49;96886.59;10411187;28;20566;-67
2023/05/19 10:53:16;;;;;;;4.88;2.00;;;;;;;22.04;42.61;96890.56;10410452;28;20593;-68
2023/05/19 10:58:42;;;;;;;3.38;2.20;;;;;;;23.35;40.05;96862.25;10412364;28;20207;-68
2023/05/19 11:03:52;;;;;;;4.20;2.38;;;;;;;22.33;41.66;96874.81;10411752;28;20216;-68
2023/05/19 11:09:00;;;;;;;3.25;2.42;;;;;;;23.18;41.30;96886.22;10410552;28;20780;-68
2023/05/19 11:14:00;;;;;;;3.95;2.55;;;;;;;22.58;45.01;96956.59;10411252;28;20641;-68
2023/05/19 11:19:00;;;;;;;3.22;2.55;;;;;;;22.24;45.74;96965.00;10411462;28;20250;-68
2023/05/19 11:24:01;;;;;;;6.18;2.35;;;;;;;22.33;43.24;96893.50;10411318;28;20211;-68
2023/05/19 11:29:02;;;;;;;3.70;2.30;;;;;;;21.10;46.21;96929.88;10411128;28;20230;-68
2023/05/19 11:34:04;;;;;;;8.98;3.00;;;;;;;19.57;48.23;96935.78;10409790;28;20232;-68
2023/05/19 11:39:05;;;;;;;4.18;2.90;;;;;;;19.55;49.40;96961.72;10411028;28;20551;-68
2023/05/19 11:44:10;;;;;;;4.35;3.03;;;;;;;19.13;51.59;96998.34;10410981;28;20234;-67
2023/05/19 11:49:10;;;;;;;12.98;2.80;;;;;;;20.03;52.07;97042.22;10416059;28;20202;-67
2023/05/19 11:54:11;;;;;;;3.30;2.55;;;;;;;20.35;50.80;97023.72;10433857;22;20239;-67
2023/05/19 11:59:12;;;;;;;4.30;3.10;;;;;;;19.40;51.49;97014.28;10334986;28;20208;-67
2023/05/19 12:04:12;;;;;;;6.15;3.08;;;;;;;18.20;54.89;97059.09;10337197;28;20226;-67
2023/05/19 12:09:13;;;;;;;5.93;2.78;;;;;;;18.29;55.63;97069.34;10337389;28;20205;-66
2023/05/19 12:14:13;;;;;;;4.80;2.38;;;;;;;18.73;54.51;97054.00;10336717;28;20704;-66
2023/05/19 12:19:14;;;;;;;4.53;3.22;;;;;;;18.20;54.74;97021.97;10336581;28;20197;-67
2023/05/19 12:24:14;;;;;;;6.38;2.28;;;;;;;19.96;51.46;97011.16;10336611;28;20276;-66
2023/05/19 12:29:14;;;;;;;5.55;2.60;;;;;;;20.40;50.82;97006.09;10336143;28;20583;-67
2023/05/19 12:34:15;;;;;;;8.15;3.10;;;;;;;20.62;49.74;96987.16;10336340;28;20245;-68
2023/05/19 12:39:16;;;;;;;5.75;3.00;;;;;;;19.22;53.64;97038.81;10335995;28;20256;-67
2023/05/19 12:44:17;;;;;;;3.95;2.75;;;;;;;19.62;53.32;97044.13;10335585;28;20230;-67
2023/05/19 12:49:17;;;;;;;6.82;3.53;;;;;;;19.88;51.45;97014.06;10336027;28;20202;-67
2023/05/19 12:54:19;;;;;;;7.10;4.13;;;;;;;18.69;54.34;97036.84;10335031;28;20716;-68
2023/05/19 12:59:24;;;;;;;3.88;2.55;;;;;;;17.95;55.28;97033.09;10334384;28;20210;-68
2023/05/19 13:04:25;;;;;;;7.88;3.20;;;;;;;17.06;59.84;97105.88;10334854;28;20603;-67
2023/05/19 13:09:26;;;;;;;8.10;3.63;;;;;;;16.32;61.22;97104.97;10334940;28;20205;-67
2023/05/19 13:14:26;;;;;;;7.05;3.25;;;;;;;16.90;62.25;97136.03;10334721;28;20218;-67
2023/05/19 13:19:27;;;;;;;6.40;3.13;;;;;;;16.38;63.32;97129.88;10334360;28;20202;-67
2023/05/19 13:24:28;;;;;;;7.25;3.78;;;;;;;16.58;64.00;97140.72;10334469;28;20224;-67
2023/05/19 13:29:28;;;;;;;7.03;4.40;;;;;;;16.21;63.54;97135.34;10333910;28;20657;-67
2023/05/19 13:34:29;;;;;;;7.93;4.75;;;;;;;16.12;62.99;97107.34;10334022;28;20216;-67
2023/05/19 13:39:29;;;;;;;6.40;4.13;;;;;;;16.58;63.83;97140.72;10333885;28;20237;-67
2023/05/19 13:44:30;;;;;;;5.63;3.90;;;;;;;16.75;63.40;97125.44;10333382;28;20214;-67
2023/05/19 13:49:30;;;;;;;7.35;3.28;;;;;;;16.95;61.07;97083.38;10333699;28;20208;-68
2023/05/19 13:54:30;;;;;;;4.78;4.13;;;;;;;16.62;63.48;97128.78;10332690;28;20791;-66
2023/05/19 13:59:31;;;;;;;9.27;4.32;;;;;;;16.51;63.29;97111.53;10333261;28;20560;-67
2023/05/19 14:04:32;;;;;;;7.70;4.72;;;;;;;16.36;63.91;97123.97;10332494;28;20276;-67
2023/05/19 14:09:32;;;;;;;5.50;4.00;;;;;;;16.30;64.87;97140.56;10332192;28;20249;-67
2023/05/19 14:14:33;;;;;;;7.75;5.25;;;;;;;16.79;63.78;97129.38;10332232;28;20214;-68
2023/05/19 14:19:33;;;;;;;7.43;4.55;;;;;;;16.07;64.79;97122.94;10332101;28;20664;-66
2023/05/19 14:24:33;;;;;;;5.47;4.32;;;;;;;15.73;66.71;97147.16;10331926;28;20305;-67
2023/05/19 14:29:34;;;;;;;8.38;5.78;;;;;;;15.92;66.35;97140.59;10331538;28;20699;-66
2023/05/19 14:34:34;;;;;;;7.35;5.25;;;;;;;15.99;66.64;97145.00;10331526;28;20688;-67
2023/05/19 14:39:35;;;;;;;7.25;4.20;;;;;;;16.06;66.58;97142.44;10331307;28;20236;-66
2023/05/19 14:44:36;;;;;;;8.38;4.10;;;;;;;16.35;63.94;97106.44;10330846;28;20225;-65
2023/05/19 14:49:36;;;;;;;5.68;4.00;;;;;;;15.83;66.78;97148.63;10331100;28;20221;-67
2023/05/19 14:54:37;;;;;;;7.05;4.13;;;;;;;15.32;67.58;97149.13;10330561;28;20269;-66
2023/05/19 14:59:37;;;;;;;5.82;4.28;;;;;;;15.46;68.63;97163.38;10330575;28;20248;-67
2023/05/19 15:04:38;;;;;;;9.68;4.25;;;;;;;15.70;68.39;97162.38;10330471;28;20739;-66
2023/05/19 15:09:38;;;;;;;5.90;4.13;;;;;;;15.57;67.20;97143.66;10330319;28;20229;-66
2023/05/19 15:14:38;;;;;;;6.35;4.63;;;;;;;15.48;68.04;97150.84;10330106;28;20296;-66
2023/05/19 15:19:41;;;;;;;8.27;4.20;;;;;;;15.47;69.29;97169.50;10330388;28;20201;-67
2023/05/19 15:24:41;;;;;;;7.22;4.68;;;;;;;15.02;69.80;97179.81;10329276;28;20217;-67
2023/05/19 15:29:42;;;;;;;5.60;3.85;;;;;;;14.71;71.47;97190.38;10330103;28;20212;-66
2023/05/19 15:34:42;;;;;;;12.63;4.55;;;;;;;14.59;71.17;97181.97;10329979;28;20252;-67
2023/05/19 15:39:42;;;;;;;5.93;4.25;;;;;;;14.63;71.69;97186.75;10329930;28;20225;-67
2023/05/19 15:44:45;;;;;;;6.20;4.20;;;;;;;14.53;72.98;97196.66;10329683;28;20237;-66
2023/05/19 15:49:45;;;;;;;7.20;4.70;;;;;;;14.19;74.56;97213.50;10329487;28;20567;-66
2023/05/19 15:54:47;;;;;;;6.18;3.90;;;;;;;14.11;74.00;97210.91;10329509;28;20232;-67
2023/05/19 15:59:47;;;;;;;5.35;4.20;;;;;;;14.00;75.21;97224.44;10329625;28;20899;-67
2023/05/19 16:04:48;;;;;;;7.43;3.80;;;;;;;13.84;75.79;97226.06;10329239;28;20229;-66
2023/05/19 16:09:48;;;;;;;9.23;4.65;;;;;;;13.76;75.27;97207.63;10329273;28;20278;-67
2023/05/19 16:14:49;;;;;;;7.15;3.47;;;;;;;13.82;75.13;97200.88;10328943;28;20210;-67
2023/05/19 16:19:49;;;;;;;6.13;3.70;;;;;;;13.53;77.67;97236.41;10329324;28;20194;-65
2023/05/19 16:24:50;;;;;;;7.05;4.22;;;;;;;13.54;76.98;97224.91;10328635;28;20225;-66
2023/05/19 16:29:50;;;;;;;6.57;3.65;;;;;;;13.49;77.60;97225.38;10329052;28;20650;-66
2023/05/19 16:34:51;;;;;;;7.10;3.55;;;;;;;13.56;77.90;97217.66;10332192;28;20344;-66
2023/05/19 16:39:51;;;;;;;5.13;3.85;;;;;;;13.63;77.44;97213.38;10336219;28;20194;-65
2023/05/19 16:44:52;;;;;;;5.10;3.90;;;;;;;13.58;77.75;97206.97;10335919;28;20599;-67
2023/05/19 16:49:52;;;;;;;5.93;3.65;;;;;;;13.22;78.97;97212.47;10335575;28;20566;-67
2023/05/19 16:54:52;;;;;;;5.57;3.60;;;;;;;13.30;78.48;97205.41;10335670;28;20225;-66
2023/05/19 16:59:53;;;;;;;6.43;3.72;;;;;;;13.12;79.21;97209.97;10335191;28;20216;-66
2023/05/19 17:04:54;;;;;;;7.10;3.88;;;;;;;13.29;78.96;97206.41;10335245;28;20316;-66
2023/05/19 17:09:54;;;;;;;4.10;3.67;;;;;;;13.27;79.28;97207.53;10334982;28;20758;-66
2023/05/19 17:14:55;;;;;;;6.80;4.10;;;;;;;13.02;80.61;97218.81;10334513;28;20233;-66
2023/05/19 17:19:56;;;;;;;6.82;3.58;;;;;;;13.01;81.96;97222.41;10334712;28;20204;-67
2023/05/19 17:24:56;;;;;;;10.40;6.35;;;;;;;13.02;82.31;97215.38;10333991;28;20663;-65
2023/05/19 17:29:56;;;;;;;5.72;4.28;;;;;;;12.69;84.11;97215.22;10334286;28;20273;-65
2023/05/19 17:34:57;;;;;;;7.78;5.68;;;;;;;12.76;84.71;97221.50;10333803;28;20205;-65
2023/05/19 17:39:57;;;;;;;5.78;4.30;;;;;;;12.74;84.59;97222.63;10333695;28;20190;-66
2023/05/19 17:44:58;;;;;;;8.25;5.20;;;;;;;12.42;86.87;97224.09;10332732;28;20329;-66
2023/05/19 17:49:58;;;;;;;10.20;5.45;;;;;;;12.15;89.28;97235.63;10333275;28;20194;-65
2023/05/19 17:54:58;;;;;;;7.53;5.00;;;;;;;12.41;88.40;97217.22;10333104;28;20229;-66
2023/05/19 18:00:00;;;;;;;9.40;5.63;;;;;;;12.31;89.02;97207.66;10332701;28;20236;-66
2023/05/19 18:05:00;;;;;;;9.13;5.05;;;;;;;12.30;88.84;97205.19;10332594;28;20210;-67
2023/05/19 18:10:02;;;;;;;11.80;6.15;;;;;;;11.86;90.24;97220.91;10332295;28;20194;-67
2023/05/19 18:15:03;;;;;;;8.02;4.88;;;;;;;12.00;91.40;97220.38;10330676;28;20208;-66
2023/05/19 18:20:04;;;;;;;7.28;5.60;;;;;;;11.93;91.98;97225.44;10332139;28;20204;-67
2023/05/19 18:25:05;;;;;;;14.93;5.63;;;;;;;11.81;94.05;97231.88;10331558;28;20225;-66
2023/05/19 18:30:05;;;;;;;8.88;5.30;;;;;;;11.82;93.91;97232.69;10331602;28;20543;-66
2023/05/19 18:35:06;;;;;;;7.63;5.03;;;;;;;11.79;94.45;97233.81;10331272;28;20217;-67
2023/05/19 18:40:07;;;;;;;12.65;6.10;;;;;;;11.60;96.09;97234.81;10331516;28;20198;-66
2023/05/19 18:45:08;;;;;;;9.55;5.35;;;;;;;11.49;98.45;97240.28;10331046;28;20628;-67
2023/05/19 18:50:08;;;;;;;8.80;5.60;;;;;;;11.46;99.51;97243.19;10331260;28;20217;-65
2023/05/19 18:55:09;;;;;;;8.75;6.32;;;;;;;11.55;98.74;97226.56;10330678;28;20238;-66
2023/05/19 19:00:10;;;;;;;9.00;6.28;;;;;;;11.18;100.00;97240.59;10329962;28;20719;-65
2023/05/19 19:05:12;;;;;;;10.20;6.00;;;;;;;11.29;100.00;97244.84;10330479;28;20249;-66
2023/05/19 19:10:13;;;;;;;8.65;6.30;;;;;;;11.22;100.00;97258.53;10330461;28;20205;-66
2023/05/19 19:15:14;;;;;;;9.20;5.50;;;;;;;11.35;100.00;97252.94;10330162;28;20782;-65
2023/05/19 19:20:14;;;;;;;11.93;5.97;;;;;;;11.28;100.00;97249.22;10330147;28;20309;-66
2023/05/19 19:25:15;;;;;;;8.77;5.82;;;;;;;11.12;100.00;97247.28;10329871;28;20218;-65
2023/05/19 19:30:15;;;;;;;7.70;5.82;;;;;;;11.17;100.00;97250.25;10329843;28;20669;-66
2023/05/19 19:35:16;;;;;;;9.93;6.65;;;;;;;11.12;100.00;97252.50;10329789;28;20759;-66
2023/05/19 19:40:16;;;;;;;8.80;6.65;;;;;;;10.87;100.00;97248.75;10329726;28;20186;-66
2023/05/19 19:45:17;;;;;;;13.90;6.15;;;;;;;10.78;100.00;97245.22;10329424;28;20260;-66
2023/05/19 19:50:17;;;;;;;9.20;6.07;;;;;;;10.56;100.00;97250.81;10329696;28;20201;-65
2023/05/19 19:55:18;;;;;;;9.85;6.38;;;;;;;10.29;100.00;97263.69;10328957;28;20229;-66
2023/05/19 20:00:18;;;;;;;12.68;7.13;;;;;;;10.18;100.00;97263.81;10329412;28;20204;-65
2023/05/19 20:05:19;;;;;;;12.07;7.50;;;;;;;10.18;100.00;97263.81;10328848;28;20229;-65
2023/05/19 20:10:19;;;;;;;10.50;6.97;;;;;;;10.21;100.00;97274.03;10333722;28;20240;-65
2023/05/19 20:15:19;;;;;;;10.87;7.00;;;;;;;10.26;100.00;97282.31;10337054;28;20218;-66
2023/05/19 20:20:20;;;;;;;9.93;7.47;;;;;;;10.35;100.00;97280.63;10336659;28;20200;-66
2023/05/19 20:25:20;;;;;;;9.32;6.65;;;;;;;10.35;100.00;97271.00;10336635;28;20304;-66
2023/05/19 20:30:21;;;;;;;12.82;7.38;;;;;;;10.37;100.00;97268.25;10336184;28;20638;-66
2023/05/19 20:35:21;;;;;;;9.18;7.05;;;;;;;10.32;100.00;97271.25;10336187;28;20228;-66
2023/05/19 20:40:22;;;;;;;12.93;7.70;;;;;;;10.38;100.00;97269.06;10336061;28;20213;-65
2023/05/19 20:45:22;;;;;;;11.18;7.70;;;;;;;10.40;100.00;97272.34;10335588;28;20304;-66
2023/05/19 20:50:22;;;;;;;10.45;8.00;;;;;;;10.43;100.00;97272.91;10335797;28;20209;-67
2023/05/19 20:55:23;;;;;;;14.38;8.25;;;;;;;10.47;100.00;97270.84;10335086;28;21065;-66
2023/05/19 21:00:23;;;;;;;13.15;7.43;;;;;;;10.38;100.00;97264.66;10335378;28;20787;-67
2023/05/19 21:05:23;;;;;;;10.23;8.15;;;;;;;10.40;100.00;97262.72;10334634;28;20688;-66
2023/05/19 21:10:24;;;;;;;13.52;8.43;;;;;;;10.35;100.00;97259.69;10334827;28;20221;-66
2023/05/19 21:15:25;;;;;;;16.52;9.05;;;;;;;10.23;100.00;97259.00;10334705;28;20202;-67
2023/05/19 21:20:27;;;;;;;14.00;9.00;;;;;;;10.41;100.00;97266.97;10333208;28;20190;-65
2023/05/19 21:25:28;;;;;;;13.43;9.63;;;;;;;10.37;100.00;97259.53;10334142;28;20225;-66
2023/05/19 21:30:28;;;;;;;18.88;8.60;;;;;;;10.46;100.00;97271.78;10333900;28;20281;-66
2023/05/19 21:35:28;;;;;;;17.92;9.68;;;;;;;10.35;100.00;97255.28;10333879;28;20412;-66
2023/05/19 21:40:29;;;;;;;14.45;9.60;;;;;;;10.50;100.00;97254.84;10333762;28;20193;-67
2023/05/19 21:45:29;;;;;;;15.82;9.23;;;;;;;10.51;100.00;97256.50;10333350;28;20264;-65
2023/05/19 21:50:30;;;;;;;15.82;9.43;;;;;;;10.48;100.00;97254.16;10332020;28;20208;-66
2023/05/19 21:55:30;;;;;;;15.63;10.13;;;;;;;10.36;100.00;97248.25;10332652;28;20265;-66
2023/05/19 22:00:30;;;;;;;16.48;11.18;;;;;;;10.34;100.00;97245.78;10332751;28;20661;-66
2023/05/19 22:05:33;;;;;;;16.55;10.07;;;;;;;10.42;100.00;97246.88;10332820;28;20224;-66
2023/05/19 22:10:35;;;;;;;13.10;9.60;;;;;;;10.40;100.00;97244.41;10332376;28;20202;-66
2023/05/19 22:15:37;;;;;;;13.23;9.45;;;;;;;10.32;100.00;97254.69;10332099;28;20214;-66
2023/05/19 22:20:37;;;;;;;17.97;11.73;;;;;;;9.92;100.00;97253.97;10331760;28;20194;-65
2023/05/19 22:25:37;;;;;;;17.48;11.07;;;;;;;10.08;100.00;97253.38;10331790;28;20715;-67
2023/05/19 22:30:38;;;;;;;15.87;11.10;;;;;;;10.15;100.00;97248.41;10331540;28;20260;-66
2023/05/19 22:35:38;;;;;;;15.37;11.27;;;;;;;10.14;100.00;97244.97;10331749;28;20214;-66
2023/05/19 22:40:39;;;;;;;15.83;11.20;;;;;;;10.23;100.00;97238.06;10331398;28;20252;-67
2023/05/19 22:45:39;;;;;;;18.77;11.83;;;;;;;10.34;100.00;97232.69;10329842;28;20226;-66
2023/05/19 22:50:40;;;;;;;18.50;11.90;;;;;;;10.11;100.00;97241.81;10331098;28;20373;-66
2023/05/19 22:55:40;;;;;;;17.87;11.30;;;;;;;9.97;100.00;97237.84;10329647;28;20233;-65
2023/05/19 23:00:40;;;;;;;18.33;12.73;;;;;;;9.75;100.00;97254.63;10330908;28;20198;-66
2023/05/19 23:05:41;;;;;;;20.03;13.17;;;;;;;9.64;100.00;97247.75;10330889;28;20706;-66
2023/05/19 23:10:41;;;;;;;24.23;12.33;;;;;;;9.40;100.00;97240.28;10330453;28;20202;-64
2023/05/19 23:15:42;;;;;;;16.20;12.03;;;;;;;9.15;100.00;97239.84;10330307;28;20230;-66